Terminal Aerodrome Forecast
Issued by NWS Charleston, WV

Home | Current Version | Previous Version | Text Only | Print | Product List | Glossary On
Versions: 1 2 3 4 5 6 7 8 9 10 11 12 13 14 15 16 17 18 19 20 21 22 23 24
000
FTUS41 KRLX 222300 RRA
TAFPKB
TAF
KPKB 222344Z 2300/2324 17004KT P6SM BKN080
     FM230800 17003KT P6SM SCT070
     FM231200 15004KT P6SM BKN035
     FM232000 14006KT P6SM BKN080=

USA.gov is the U.S. government's official web portal to all federal, state and local government web resources and services.